createdAt,value
2023-02-02T00:00:24.412Z,100.00
2023-02-02T00:02:51.427Z,100.00
2023-02-02T00:05:18.112Z,100.00
2023-02-02T00:07:44.767Z,100.00
2023-02-02T00:10:11.600Z,100.00
2023-02-02T00:12:38.375Z,100.00
2023-02-02T00:15:05.700Z,100.00
2023-02-02T00:17:32.545Z,100.00
2023-02-02T00:19:59.296Z,100.00
2023-02-02T00:22:26.015Z,100.00
2023-02-02T00:24:52.601Z,100.00
2023-02-02T00:27:19.248Z,100.00
2023-02-02T00:29:45.963Z,100.00
2023-02-02T00:32:12.627Z,100.00
2023-02-02T00:34:39.280Z,100.00
2023-02-02T00:37:06.137Z,100.00
2023-02-02T00:39:32.960Z,100.00
2023-02-02T00:41:59.973Z,100.00
2023-02-02T00:44:45.289Z,100.00
2023-02-02T00:47:12.135Z,100.00
2023-02-02T00:49:38.802Z,100.00
2023-02-02T00:52:05.804Z,100.00
2023-02-02T00:54:32.555Z,100.00
2023-02-02T00:56:59.320Z,100.00
2023-02-02T00:59:26.103Z,100.00
2023-02-02T01:01:52.808Z,100.00
2023-02-02T01:04:19.673Z,100.00
2023-02-02T01:06:46.434Z,100.00
2023-02-02T01:09:13.121Z,100.00
2023-02-02T01:11:39.767Z,100.00
2023-02-02T01:14:06.489Z,100.00
2023-02-02T01:16:33.254Z,100.00
2023-02-02T01:18:59.934Z,100.00
2023-02-02T01:21:26.666Z,100.00
2023-02-02T01:23:53.840Z,100.00
2023-02-02T01:26:20.579Z,100.00
2023-02-02T01:28:47.554Z,100.00
2023-02-02T01:31:16.708Z,100.00
2023-02-02T01:33:44.550Z,100.00
2023-02-02T01:36:13.859Z,100.00
2023-02-02T01:38:40.804Z,100.00
2023-02-02T01:41:07.844Z,100.00
2023-02-02T01:44:04.923Z,100.00
2023-02-02T01:46:33.763Z,100.00
2023-02-02T01:49:06.855Z,100.00
2023-02-02T01:51:51.849Z,100.00
2023-02-02T01:54:32.029Z,99.32
2023-02-02T01:57:03.118Z,98.65
2023-02-02T01:59:30.807Z,97.27
2023-02-02T02:01:57.924Z,97.47
2023-02-02T02:04:25.834Z,96.60
2023-02-02T02:06:53.911Z,96.64
2023-02-02T02:09:21.041Z,96.33
2023-02-02T02:11:47.919Z,96.48
2023-02-02T02:14:33.684Z,97.37
2023-02-02T02:17:15.150Z,96.98
2023-02-02T02:20:18.289Z,96.91
2023-02-02T02:23:31.309Z,97.48
2023-02-02T02:26:22.709Z,96.16
2023-02-02T02:29:04.181Z,95.46
2023-02-02T02:32:12.748Z,95.07
2023-02-02T02:35:10.182Z,94.70
2023-02-02T02:37:47.951Z,94.13
2023-02-02T02:40:35.051Z,93.75
2023-02-02T02:43:19.196Z,93.50
2023-02-02T02:45:46.414Z,93.74
2023-02-02T02:48:13.322Z,93.28
2023-02-02T02:50:39.962Z,93.22
2023-02-02T02:53:10.226Z,93.31
2023-02-02T02:55:57.683Z,92.68
2023-02-02T02:58:37.960Z,93.29
2023-02-02T03:01:18.033Z,93.55
2023-02-02T03:04:23.825Z,93.86
2023-02-02T03:06:58.663Z,94.35
2023-02-02T03:09:33.084Z,93.65
2023-02-02T03:12:00.089Z,94.64
2023-02-02T03:14:26.922Z,94.86
2023-02-02T03:16:53.814Z,95.46
2023-02-02T03:19:20.669Z,95.28
2023-02-02T03:21:47.361Z,95.17
2023-02-02T03:24:14.031Z,95.81
2023-02-02T03:26:41.364Z,96.83
2023-02-02T03:29:08.267Z,96.63
2023-02-02T03:31:34.933Z,97.32
2023-02-02T03:34:01.681Z,98.09
2023-02-02T03:36:28.312Z,97.64
2023-02-02T03:38:55.193Z,98.33
2023-02-02T03:41:21.866Z,98.25
2023-02-02T03:43:48.504Z,98.52
2023-02-02T03:46:15.315Z,98.06
2023-02-02T03:48:42.152Z,97.97
2023-02-02T03:51:13.024Z,98.64
2023-02-02T03:53:40.668Z,98.54
2023-02-02T03:56:07.471Z,99.16
2023-02-02T03:58:34.095Z,98.94
2023-02-02T04:01:08.664Z,99.13
2023-02-02T04:03:35.294Z,99.37
2023-02-02T04:06:01.959Z,99.67
2023-02-02T04:08:28.742Z,100.00
2023-02-02T04:10:55.374Z,99.72
2023-02-02T04:13:22.095Z,99.73
2023-02-02T04:15:48.847Z,98.65
2023-02-02T04:18:15.739Z,98.57
2023-02-02T04:20:42.406Z,99.23
2023-02-02T04:23:09.057Z,99.07
2023-02-02T04:25:35.738Z,98.08
2023-02-02T04:28:02.342Z,98.55
2023-02-02T04:30:28.989Z,98.59
2023-02-02T04:32:56.302Z,98.62
2023-02-02T04:35:23.600Z,99.26
2023-02-02T04:37:50.421Z,99.43
2023-02-02T04:40:17.186Z,98.80
2023-02-02T04:42:45.534Z,98.70
2023-02-02T04:45:12.300Z,98.94
2023-02-02T04:47:38.992Z,99.09
2023-02-02T04:50:06.251Z,99.57
2023-02-02T04:52:33.049Z,99.92
2023-02-02T04:54:59.638Z,100.00
2023-02-02T04:57:26.533Z,100.00
2023-02-02T04:59:53.140Z,100.00
2023-02-02T05:02:19.770Z,100.00
2023-02-02T05:04:46.691Z,100.00
2023-02-02T05:07:13.990Z,100.00
2023-02-02T05:09:40.597Z,100.00
2023-02-02T05:12:07.239Z,100.00
2023-02-02T05:14:33.941Z,100.00
2023-02-02T05:17:00.685Z,100.00
2023-02-02T05:19:27.343Z,100.00
2023-02-02T05:21:54.958Z,100.00
2023-02-02T05:24:21.846Z,100.00
2023-02-02T05:26:48.563Z,100.00
2023-02-02T05:29:15.294Z,100.00
2023-02-02T05:31:42.012Z,100.00
2023-02-02T05:34:11.755Z,100.00
2023-02-02T05:36:38.593Z,100.00
2023-02-02T05:39:05.820Z,100.00
2023-02-02T05:41:32.596Z,100.00
2023-02-02T05:44:00.135Z,100.00
2023-02-02T05:46:26.766Z,100.00
2023-02-02T05:48:53.949Z,100.00
2023-02-02T05:51:24.574Z,100.00
2023-02-02T05:53:51.358Z,100.00
2023-02-02T05:56:18.050Z,100.00
2023-02-02T05:58:47.474Z,100.00
2023-02-02T06:01:14.414Z,100.00
2023-02-02T06:03:41.086Z,100.00
2023-02-02T06:06:07.983Z,100.00
2023-02-02T06:08:35.434Z,100.00
2023-02-02T06:11:12.457Z,100.00
2023-02-02T06:13:39.219Z,100.00
2023-02-02T06:16:06.584Z,100.00
2023-02-02T06:18:34.296Z,100.00
2023-02-02T06:21:02.238Z,100.00
2023-02-02T06:23:28.889Z,100.00
2023-02-02T06:25:55.551Z,100.00
2023-02-02T06:28:22.484Z,100.00
2023-02-02T06:30:49.320Z,100.00
2023-02-02T06:33:16.237Z,100.00
2023-02-02T06:35:42.967Z,100.00
2023-02-02T06:38:11.118Z,100.00
2023-02-02T06:40:37.997Z,100.00
2023-02-02T06:43:04.754Z,100.00
2023-02-02T06:45:31.630Z,100.00
2023-02-02T06:48:03.698Z,100.00
2023-02-02T06:50:30.580Z,100.00
2023-02-02T06:52:57.275Z,100.00
2023-02-02T06:55:24.180Z,100.00
2023-02-02T06:57:56.934Z,100.00
2023-02-02T07:00:23.993Z,100.00
2023-02-02T07:02:50.742Z,100.00
2023-02-02T07:05:19.669Z,100.00
2023-02-02T07:07:46.948Z,100.00
2023-02-02T07:11:12.016Z,100.00
2023-02-02T07:13:01.582Z,100.00
2023-02-02T07:15:28.414Z,100.00
2023-02-02T07:17:55.087Z,100.00
2023-02-02T07:20:21.808Z,100.00
2023-02-02T07:22:49.419Z,100.00
2023-02-02T07:25:16.252Z,100.00
2023-02-02T07:27:42.916Z,100.00
2023-02-02T07:30:10.940Z,100.00
2023-02-02T07:32:37.528Z,100.00
2023-02-02T07:35:04.905Z,100.00
2023-02-02T07:37:31.637Z,100.00
2023-02-02T07:39:58.312Z,100.00
2023-02-02T07:42:24.956Z,100.00
2023-02-02T07:44:51.609Z,100.00
2023-02-02T07:47:18.205Z,100.00
2023-02-02T07:49:46.282Z,100.00
2023-02-02T07:52:12.941Z,100.00
2023-02-02T07:54:39.649Z,100.00
2023-02-02T07:57:06.272Z,100.00
2023-02-02T07:59:32.998Z,100.00
2023-02-02T08:01:59.821Z,100.00
2023-02-02T08:04:26.532Z,100.00
2023-02-02T08:06:53.147Z,100.00
2023-02-02T08:09:20.186Z,100.00
2023-02-02T08:11:47.062Z,100.00
2023-02-02T08:14:14.503Z,100.00
2023-02-02T08:16:41.416Z,100.00
2023-02-02T08:19:09.838Z,100.00
2023-02-02T08:21:36.871Z,100.00
2023-02-02T08:24:05.590Z,100.00
2023-02-02T08:26:32.466Z,100.00
2023-02-02T08:29:02.199Z,100.00
2023-02-02T08:31:31.502Z,100.00
2023-02-02T08:33:58.814Z,100.00
2023-02-02T08:36:27.436Z,100.00
2023-02-02T08:38:54.617Z,100.00
2023-02-02T08:41:23.828Z,100.00
2023-02-02T08:43:51.238Z,100.00
2023-02-02T08:46:19.700Z,100.00
2023-02-02T08:48:47.309Z,100.00
2023-02-02T08:51:16.361Z,100.00
2023-02-02T08:53:43.461Z,100.00
2023-02-02T08:56:21.291Z,100.00
2023-02-02T08:58:50.344Z,100.00
2023-02-02T09:01:20.641Z,100.00
2023-02-02T09:03:47.423Z,100.00
2023-02-02T09:06:17.044Z,100.00
2023-02-02T09:08:44.136Z,100.00
2023-02-02T09:11:21.603Z,100.00
2023-02-02T09:13:49.713Z,100.00
2023-02-02T09:16:18.456Z,100.00
2023-02-02T09:18:45.818Z,100.00
2023-02-02T09:21:15.389Z,100.00
2023-02-02T09:23:43.464Z,100.00
2023-02-02T09:26:29.441Z,100.00
2023-02-02T09:29:04.266Z,100.00
2023-02-02T09:31:34.579Z,100.00
2023-02-02T09:34:02.928Z,100.00
2023-02-02T09:36:29.652Z,100.00
2023-02-02T09:38:56.371Z,100.00
2023-02-02T09:41:58.445Z,100.00
2023-02-02T09:45:03.359Z,100.00
2023-02-02T09:47:52.414Z,100.00
2023-02-02T09:50:42.097Z,100.00
2023-02-02T09:53:46.013Z,100.00
2023-02-02T09:56:44.287Z,100.00
2023-02-02T09:59:24.841Z,100.00
2023-02-02T10:01:55.613Z,100.00
2023-02-02T10:04:28.283Z,100.00
2023-02-02T10:06:57.710Z,100.00
2023-02-02T10:09:54.010Z,100.00
2023-02-02T10:12:34.240Z,100.00
2023-02-02T10:15:13.192Z,100.00
2023-02-02T10:18:12.055Z,100.00
2023-02-02T10:20:50.805Z,100.00
2023-02-02T10:23:39.528Z,100.00
2023-02-02T10:26:52.701Z,100.00
2023-02-02T10:29:48.054Z,100.00
2023-02-02T10:32:26.920Z,100.00
2023-02-02T10:35:22.513Z,100.00
2023-02-02T10:38:22.205Z,100.00
2023-02-02T10:41:03.707Z,100.00
2023-02-02T10:44:25.052Z,100.00
2023-02-02T10:46:53.942Z,100.00
2023-02-02T10:49:31.348Z,100.00
2023-02-02T10:51:59.999Z,100.00
2023-02-02T10:54:55.508Z,100.00
2023-02-02T10:57:48.616Z,100.00
2023-02-02T11:00:26.098Z,100.00
2023-02-02T11:02:54.024Z,100.00
2023-02-02T11:05:41.391Z,100.00
2023-02-02T11:08:16.400Z,100.00
2023-02-02T11:10:44.566Z,100.00
2023-02-02T11:13:31.988Z,100.00
2023-02-02T11:16:42.148Z,100.00
2023-02-02T11:19:24.616Z,100.00
2023-02-02T11:21:59.089Z,100.00
2023-02-02T11:24:59.532Z,100.00
2023-02-02T11:27:41.705Z,100.00
2023-02-02T11:30:34.841Z,100.00
2023-02-02T11:33:28.099Z,100.00
2023-02-02T11:36:00.227Z,100.00
2023-02-02T11:38:27.949Z,100.00
2023-02-02T11:41:02.485Z,100.00
2023-02-02T11:43:41.973Z,100.00
2023-02-02T11:46:23.931Z,100.00
2023-02-02T11:48:57.854Z,100.00
2023-02-02T11:51:26.763Z,100.00
2023-02-02T11:54:30.450Z,100.00
2023-02-02T11:57:00.919Z,100.00
2023-02-02T11:59:33.769Z,100.00
2023-02-02T12:02:34.433Z,100.00
2023-02-02T12:05:32.373Z,100.00
2023-02-02T12:07:59.899Z,100.00
2023-02-02T12:10:42.440Z,100.00
2023-02-02T12:14:05.064Z,100.00
2023-02-02T12:16:53.601Z,100.00
2023-02-02T12:19:33.792Z,100.00
2023-02-02T12:22:17.798Z,100.00
2023-02-02T12:25:02.653Z,100.00
2023-02-02T12:28:18.968Z,100.00
2023-02-02T12:30:58.754Z,100.00
2023-02-02T12:33:49.309Z,100.00
2023-02-02T12:36:50.969Z,100.00
2023-02-02T12:42:26.688Z,100.00
2023-02-02T12:52:16.214Z,100.00
2023-02-02T12:55:17.690Z,100.00
2023-02-02T12:58:10.694Z,100.00
2023-02-02T13:01:03.006Z,100.00
2023-02-02T13:03:38.895Z,100.00
2023-02-02T13:06:22.487Z,100.00
2023-02-02T13:08:59.304Z,100.00
2023-02-02T13:11:50.000Z,100.00
2023-02-02T13:14:30.341Z,100.00
2023-02-02T13:17:01.407Z,100.00
2023-02-02T13:19:38.917Z,100.00
2023-02-02T13:22:08.407Z,100.00
2023-02-02T13:24:37.346Z,100.00
2023-02-02T13:27:06.171Z,100.00
2023-02-02T13:29:47.688Z,100.00
2023-02-02T13:32:38.919Z,100.00
2023-02-02T13:35:21.143Z,100.00
2023-02-02T13:37:57.653Z,100.00
2023-02-02T13:40:32.386Z,100.00
2023-02-02T13:43:34.729Z,100.00
2023-02-02T13:46:24.327Z,100.00
2023-02-02T13:49:19.016Z,100.00
2023-02-02T13:52:23.127Z,100.00
2023-02-02T13:55:36.156Z,100.00
2023-02-02T13:58:14.526Z,100.00
2023-02-02T14:00:44.820Z,100.00
2023-02-02T14:03:31.491Z,100.00
2023-02-02T14:06:12.759Z,100.00
2023-02-02T14:09:03.785Z,100.00
2023-02-02T14:11:42.915Z,100.00
2023-02-02T14:14:33.403Z,100.00
2023-02-02T14:17:34.579Z,100.00
2023-02-02T14:20:02.626Z,100.00
2023-02-02T14:22:48.256Z,100.00
2023-02-02T14:25:48.813Z,100.00
2023-02-02T14:28:53.216Z,100.00
2023-02-02T14:31:29.979Z,100.00
2023-02-02T14:34:27.368Z,100.00
2023-02-02T14:37:09.412Z,100.00
2023-02-02T14:39:47.507Z,100.00
2023-02-02T14:43:20.662Z,100.00
2023-02-02T14:46:08.867Z,100.00
2023-02-02T14:48:35.634Z,100.00
2023-02-02T14:51:02.952Z,100.00
2023-02-02T14:53:34.510Z,100.00
2023-02-02T14:56:11.322Z,100.00
2023-02-02T14:58:56.542Z,100.00
2023-02-02T15:01:30.134Z,100.00
2023-02-02T15:04:21.694Z,100.00
2023-02-02T15:06:51.283Z,100.00
2023-02-02T15:09:31.899Z,100.00
2023-02-02T15:12:21.486Z,100.00
2023-02-02T15:15:08.467Z,100.00
2023-02-02T15:17:42.140Z,100.00
2023-02-02T15:20:12.079Z,100.00
2023-02-02T15:23:06.823Z,100.00
2023-02-02T15:26:15.708Z,100.00
2023-02-02T15:28:56.555Z,100.00
2023-02-02T15:31:28.525Z,100.00
2023-02-02T15:34:11.247Z,100.00
2023-02-02T15:36:39.694Z,100.00
2023-02-02T15:39:27.262Z,100.00
2023-02-02T15:42:16.930Z,100.00
2023-02-02T15:44:44.096Z,100.00
2023-02-02T15:47:18.886Z,100.00
2023-02-02T15:49:46.323Z,100.00
2023-02-02T15:52:16.511Z,100.00
2023-02-02T15:54:52.203Z,100.00
2023-02-02T15:57:34.344Z,100.00
2023-02-02T16:00:23.088Z,100.00
2023-02-02T16:02:58.838Z,100.00
2023-02-02T16:05:52.330Z,100.00
2023-02-02T16:08:23.510Z,100.00
2023-02-02T16:10:50.435Z,100.00
2023-02-02T16:13:24.468Z,100.00
2023-02-02T16:15:55.836Z,100.00
2023-02-02T16:18:22.701Z,100.00
2023-02-02T16:20:49.985Z,100.00
2023-02-02T16:23:26.701Z,100.00
2023-02-02T16:25:55.303Z,100.00
2023-02-02T16:28:22.445Z,100.00
2023-02-02T16:30:49.696Z,100.00
2023-02-02T16:33:35.139Z,100.00
2023-02-02T16:36:04.461Z,100.00
2023-02-02T16:38:37.652Z,100.00
2023-02-02T16:41:09.639Z,100.00
2023-02-02T16:43:38.229Z,100.00
2023-02-02T16:46:09.097Z,100.00
2023-02-02T16:48:41.141Z,100.00
2023-02-02T16:51:37.540Z,100.00
2023-02-02T16:54:22.111Z,100.00
2023-02-02T16:56:52.014Z,100.00
2023-02-02T16:59:30.437Z,100.00
2023-02-02T17:02:30.015Z,100.00
2023-02-02T17:05:01.470Z,100.00
2023-02-02T17:07:29.019Z,100.00
2023-02-02T17:10:22.884Z,100.00
2023-02-02T17:12:49.557Z,100.00
2023-02-02T17:15:29.741Z,100.00
2023-02-02T17:17:56.865Z,100.00
2023-02-02T17:20:23.985Z,100.00
2023-02-02T17:22:56.934Z,100.00
2023-02-02T17:25:29.985Z,100.00
2023-02-02T17:27:58.213Z,100.00
2023-02-02T17:30:25.180Z,100.00
2023-02-02T17:32:51.935Z,100.00
2023-02-02T17:35:22.768Z,100.00
2023-02-02T17:37:55.596Z,100.00
2023-02-02T17:40:23.759Z,100.00
2023-02-02T17:42:53.149Z,100.00
2023-02-02T17:45:23.466Z,100.00
2023-02-02T17:47:57.226Z,100.00
2023-02-02T17:50:24.820Z,100.00
2023-02-02T17:52:51.690Z,100.00
2023-02-02T17:55:21.550Z,100.00
2023-02-02T17:57:52.158Z,100.00
2023-02-02T18:00:21.725Z,100.00
2023-02-02T18:02:50.861Z,100.00
2023-02-02T18:05:18.377Z,100.00
2023-02-02T18:07:45.037Z,100.00
2023-02-02T18:10:15.593Z,100.00
2023-02-02T18:12:42.870Z,100.00
2023-02-02T18:15:13.079Z,100.00
2023-02-02T18:17:39.807Z,100.00
2023-02-02T18:20:06.887Z,100.00
2023-02-02T18:22:36.656Z,100.00
2023-02-02T18:25:05.157Z,100.00
2023-02-02T18:27:31.873Z,100.00
2023-02-02T18:29:58.476Z,100.00
2023-02-02T18:32:29.934Z,100.00
2023-02-02T18:34:56.921Z,100.00
2023-02-02T18:37:25.930Z,100.00
2023-02-02T18:39:54.135Z,100.00
2023-02-02T18:42:20.993Z,100.00
2023-02-02T18:44:47.787Z,100.00
2023-02-02T18:47:18.219Z,100.00
2023-02-02T18:49:44.948Z,100.00
2023-02-02T18:52:11.628Z,100.00
2023-02-02T18:54:39.047Z,100.00
2023-02-02T18:57:06.118Z,100.00
2023-02-02T18:59:37.620Z,100.00
2023-02-02T19:02:04.301Z,100.00
2023-02-02T19:04:30.928Z,100.00
2023-02-02T19:07:16.554Z,100.00
2023-02-02T19:09:43.302Z,100.00
2023-02-02T19:12:14.693Z,100.00
2023-02-02T19:14:42.599Z,100.00
2023-02-02T19:17:29.550Z,100.00
2023-02-02T19:19:59.987Z,100.00
2023-02-02T19:22:31.313Z,100.00
2023-02-02T19:24:58.258Z,100.00
2023-02-02T19:27:27.171Z,100.00
2023-02-02T19:29:56.614Z,100.00
2023-02-02T19:32:25.365Z,100.00
2023-02-02T19:34:52.993Z,100.00
2023-02-02T19:37:28.148Z,100.00
2023-02-02T19:40:27.600Z,100.00
2023-02-02T19:43:00.957Z,100.00
2023-02-02T19:45:30.219Z,100.00
2023-02-02T19:47:58.280Z,100.00
2023-02-02T19:50:28.296Z,100.00
2023-02-02T19:52:55.920Z,100.00
2023-02-02T19:55:30.464Z,100.00
2023-02-02T19:58:21.068Z,100.00
2023-02-02T20:00:49.603Z,100.00
2023-02-02T20:03:39.737Z,100.00
2023-02-02T20:06:09.658Z,100.00
2023-02-02T20:08:40.120Z,100.00
2023-02-02T20:11:23.051Z,100.00
2023-02-02T20:13:50.300Z,100.00
2023-02-02T20:16:22.137Z,100.00
2023-02-02T20:18:54.027Z,100.00
2023-02-02T20:21:44.198Z,100.00
2023-02-02T20:24:50.155Z,100.00
2023-02-02T20:27:19.865Z,100.00
2023-02-02T20:29:48.130Z,100.00
2023-02-02T20:32:30.481Z,100.00
2023-02-02T20:34:59.323Z,100.00
2023-02-02T20:37:32.355Z,100.00
2023-02-02T20:40:01.861Z,100.00
2023-02-02T20:42:33.085Z,100.00
2023-02-02T20:44:59.723Z,100.00
2023-02-02T20:47:26.457Z,100.00
2023-02-02T20:49:53.414Z,100.00
2023-02-02T20:52:24.214Z,100.00
2023-02-02T20:54:51.624Z,100.00
2023-02-02T20:57:19.135Z,100.00
2023-02-02T20:59:46.195Z,100.00
2023-02-02T21:02:20.760Z,100.00
2023-02-02T21:04:48.221Z,100.00
2023-02-02T21:07:17.185Z,100.00
2023-02-02T21:09:48.238Z,100.00
2023-02-02T21:12:15.102Z,100.00
2023-02-02T21:14:41.770Z,100.00
2023-02-02T21:17:15.197Z,100.00
2023-02-02T21:19:42.663Z,100.00
2023-02-02T21:22:09.337Z,100.00
2023-02-02T21:24:36.084Z,100.00
2023-02-02T21:27:06.089Z,100.00
2023-02-02T21:29:33.494Z,100.00
2023-02-02T21:32:02.830Z,100.00
2023-02-02T21:34:30.865Z,100.00
2023-02-02T21:36:58.497Z,100.00
2023-02-02T21:39:33.279Z,100.00
2023-02-02T21:42:13.654Z,100.00
2023-02-02T21:44:54.340Z,100.00
2023-02-02T21:47:40.676Z,100.00
2023-02-02T21:50:37.130Z,100.00
2023-02-02T21:53:25.528Z,100.00
2023-02-02T21:55:56.975Z,100.00
2023-02-02T21:58:38.761Z,100.00
2023-02-02T22:01:21.631Z,100.00
2023-02-02T22:03:50.490Z,100.00
2023-02-02T22:06:33.943Z,100.00
2023-02-02T22:09:11.852Z,100.00
2023-02-02T22:12:01.793Z,100.00
2023-02-02T22:14:37.709Z,100.00
2023-02-02T22:17:40.538Z,100.00
2023-02-02T22:20:33.742Z,100.00
2023-02-02T22:23:02.554Z,100.00
2023-02-02T22:25:37.213Z,100.00
2023-02-02T22:28:22.670Z,100.00
2023-02-02T22:30:55.628Z,100.00
2023-02-02T22:33:23.760Z,100.00
2023-02-02T22:35:50.843Z,100.00
2023-02-02T22:38:22.472Z,100.00
2023-02-02T22:40:50.827Z,100.00
2023-02-02T22:43:18.726Z,100.00
2023-02-02T22:45:45.876Z,100.00
2023-02-02T22:48:14.059Z,100.00
2023-02-02T22:50:41.027Z,100.00
2023-02-02T22:53:07.627Z,100.00
2023-02-02T22:55:34.942Z,100.00
2023-02-02T22:58:01.625Z,100.00
2023-02-02T23:00:30.140Z,100.00
2023-02-02T23:02:57.510Z,100.00
2023-02-02T23:05:25.163Z,100.00
2023-02-02T23:07:52.005Z,100.00
2023-02-02T23:10:21.018Z,100.00
2023-02-02T23:12:48.294Z,100.00
2023-02-02T23:15:15.985Z,100.00
2023-02-02T23:17:42.906Z,100.00
2023-02-02T23:20:13.571Z,100.00
2023-02-02T23:22:40.344Z,100.00
2023-02-02T23:25:07.645Z,100.00
2023-02-02T23:27:34.599Z,100.00
2023-02-02T23:30:01.334Z,100.00
2023-02-02T23:32:28.101Z,100.00
2023-02-02T23:34:54.711Z,100.00
2023-02-02T23:37:21.429Z,100.00
2023-02-02T23:39:48.098Z,100.00
2023-02-02T23:42:14.857Z,100.00
2023-02-02T23:44:41.556Z,100.00
2023-02-02T23:47:08.447Z,100.00
2023-02-02T23:49:35.294Z,100.00
2023-02-02T23:52:02.499Z,100.00
2023-02-02T23:54:29.770Z,100.00
2023-02-02T23:56:57.346Z,100.00
2023-02-02T23:59:24.335Z,100.00
